Time;durP1;ratioP1;P1;durP2;ratioP2;P2;SDS_P1;SDS_P2;PMS_P1;PMS_P2;Temp;Humidity;BMP_temperature;BMP_pressure;BME280_temperature;BME280_humidity;BME280_pressure;Samples;Min_cycle;Max_cycle;Signal;HPM_P1;HPM_P2
2022/01/28 00:01:08;;;;;;;13.23;3.40;;;7.40;99.90;;;;;;5071904;28;20275;-87
2022/01/28 00:03:39;;;;;;;16.97;4.00;;;7.50;99.90;;;;;;5071987;28;21006;-85
2022/01/28 00:06:07;;;;;;;16.23;3.67;;;7.50;99.90;;;;;;5071628;28;20204;-84
2022/01/28 00:08:35;;;;;;;25.90;6.03;;;7.50;99.90;;;;;;5071588;28;20209;-85
2022/01/28 00:11:02;;;;;;;16.33;3.20;;;7.40;99.90;;;;;;5071322;28;20903;-84
2022/01/28 00:13:34;;;;;;;24.30;3.60;;;7.50;99.90;;;;;;5071859;28;20209;-84
2022/01/28 00:38:12;;;;;;;18.03;4.37;;;7.40;99.90;;;;;;5090781;28;20860;-83
2022/01/28 00:40:41;;;;;;;14.47;2.77;;;7.40;99.90;;;;;;5091143;28;20224;-85
2022/01/28 00:43:08;;;;;;;13.67;3.40;;;7.40;99.90;;;;;;5091324;28;20196;-84
2022/01/28 00:45:35;;;;;;;17.33;2.50;;;7.40;99.90;;;;;;5091344;28;20667;-83
2022/01/28 00:48:02;;;;;;;22.10;4.30;;;7.50;99.90;;;;;;5072869;28;20217;-85
2022/01/28 00:50:29;;;;;;;18.40;4.37;;;7.50;99.90;;;;;;5070658;28;20503;-85
2022/01/28 00:52:56;;;;;;;17.33;3.30;;;7.50;99.90;;;;;;5080381;28;20205;-84
2022/01/28 00:55:23;;;;;;;13.93;3.17;;;7.50;99.90;;;;;;5070361;28;20450;-84
2022/01/28 00:57:51;;;;;;;17.87;3.40;;;7.50;99.90;;;;;;5070385;28;20213;-84
2022/01/28 01:00:18;;;;;;;21.77;3.60;;;7.50;99.90;;;;;;5069716;28;20221;-84
2022/01/28 01:02:45;;;;;;;16.07;3.90;;;7.40;99.90;;;;;;5070456;28;20212;-86
2022/01/28 01:05:12;;;;;;;25.30;5.07;;;7.50;99.90;;;;;;5075100;28;20212;-84
2022/01/28 01:07:40;;;;;;;18.07;2.97;;;7.40;99.90;;;;;;5078442;28;20232;-85
2022/01/28 01:10:08;;;;;;;15.70;4.00;;;7.50;99.90;;;;;;5070299;28;20205;-85
2022/01/28 01:12:40;;;;;;;22.93;3.70;;;7.50;99.90;;;;;;5080777;28;20220;-84
2022/01/28 01:15:11;;;;;;;17.07;3.53;;;7.50;99.90;;;;;;5090065;28;20878;-83
2022/01/28 01:17:42;;;;;;;15.30;3.63;;;7.40;99.90;;;;;;5075183;28;20216;-85
2022/01/28 01:20:30;;;;;;;19.73;4.40;;;7.40;99.90;;;;;;5070600;28;20506;-86
2022/01/28 01:23:07;;;;;;;22.37;4.30;;;7.50;99.90;;;;;;5070189;28;20684;-85
2022/01/28 01:25:42;;;;;;;16.20;4.00;;;7.50;99.90;;;;;;5070370;28;20247;-85
2022/01/28 01:28:10;;;;;;;15.00;3.27;;;7.50;99.90;;;;;;5069796;28;20188;-85
2022/01/28 01:30:41;;;;;;;23.53;2.97;;;7.50;99.90;;;;;;5069975;28;20213;-80
2022/01/28 01:33:09;;;;;;;20.60;3.23;;;7.50;99.90;;;;;;5069667;28;20189;-85
2022/01/28 01:35:36;;;;;;;13.83;3.07;;;7.50;99.90;;;;;;5069774;28;20205;-84
2022/01/28 01:38:05;;;;;;;19.37;3.80;;;7.40;99.90;;;;;;5070403;28;20244;-86
2022/01/28 01:40:36;;;;;;;18.37;4.43;;;7.40;99.90;;;;;;5070677;28;20233;-84
2022/01/28 01:43:12;;;;;;;19.47;4.40;;;7.40;99.90;;;;;;5070806;28;20209;-87
2022/01/28 01:46:01;;;;;;;17.47;4.20;;;7.40;99.90;;;;;;5089589;28;20196;-83
2022/01/28 01:53:59;;;;;;;22.90;3.37;;;7.40;99.90;;;;;;5069625;28;20729;-85
2022/01/28 01:56:27;;;;;;;17.83;3.50;;;7.30;99.90;;;;;;5070026;28;20209;-84
2022/01/28 01:58:55;;;;;;;13.13;3.30;;;7.30;99.90;;;;;;5070165;28;20204;-84
2022/01/28 02:01:24;;;;;;;18.60;4.10;;;7.30;99.90;;;;;;5070315;28;20279;-83
2022/01/28 02:03:50;;;;;;;14.33;2.87;;;7.30;99.90;;;;;;5069314;28;20212;-85
2022/01/28 02:06:20;;;;;;;14.27;2.57;;;7.30;99.90;;;;;;5067361;28;20609;-85
2022/01/28 02:08:48;;;;;;;19.70;3.10;;;7.30;99.90;;;;;;5072147;28;20628;-84
2022/01/28 02:11:15;;;;;;;31.03;4.03;;;7.40;99.90;;;;;;5073073;28;20228;-83
2022/01/28 02:13:46;;;;;;;14.03;2.77;;;7.30;99.90;;;;;;5072182;28;20199;-85
2022/01/28 02:16:13;;;;;;;13.50;2.87;;;7.30;99.90;;;;;;5072585;28;20205;-83
2022/01/28 02:18:42;;;;;;;18.17;3.30;;;7.30;99.90;;;;;;5072290;28;20263;-83
2022/01/28 02:21:13;;;;;;;12.93;2.70;;;7.30;99.90;;;;;;5072544;28;20209;-85
2022/01/28 02:23:42;;;;;;;15.23;2.53;;;7.30;99.90;;;;;;5072700;28;20193;-84
2022/01/28 02:26:13;;;;;;;22.77;2.50;;;7.30;99.90;;;;;;5073934;28;20205;-85
2022/01/28 02:28:41;;;;;;;14.60;2.83;;;7.30;99.90;;;;;;5072176;28;20324;-85
2022/01/28 02:31:08;;;;;;;12.83;2.90;;;7.30;99.90;;;;;;5072286;28;20225;-85
2022/01/28 02:33:35;;;;;;;16.40;3.47;;;7.30;99.90;;;;;;5072775;28;20185;-85
2022/01/28 02:36:05;;;;;;;17.97;2.87;;;7.30;99.90;;;;;;5072311;28;20288;-84
2022/01/28 02:38:35;;;;;;;19.30;3.37;;;7.30;99.90;;;;;;5077556;28;20503;-85
2022/01/28 02:41:04;;;;;;;17.60;3.80;;;7.30;99.90;;;;;;5093239;28;20224;-84
2022/01/28 02:43:39;;;;;;;16.77;3.10;;;7.30;99.90;;;;;;5082880;28;20562;-83
2022/01/28 02:46:11;;;;;;;13.77;2.40;;;7.20;99.90;;;;;;5072182;28;20193;-87
2022/01/28 02:48:42;;;;;;;17.33;3.33;;;7.20;99.90;;;;;;5072917;28;20592;-86
2022/01/28 02:51:14;;;;;;;18.70;2.73;;;7.20;99.90;;;;;;5072504;28;20205;-85
2022/01/28 02:53:48;;;;;;;15.40;3.13;;;7.20;99.90;;;;;;5072250;28;20201;-82
2022/01/28 02:56:19;;;;;;;17.27;3.23;;;7.20;99.90;;;;;;5074366;28;20200;-84
2022/01/28 02:58:47;;;;;;;18.20;2.77;;;7.20;99.90;;;;;;5092380;28;20224;-86
2022/01/28 03:01:15;;;;;;;15.07;2.87;;;7.20;99.90;;;;;;5092137;28;20193;-84
2022/01/28 03:03:43;;;;;;;19.17;4.43;;;7.20;99.90;;;;;;5092880;28;20681;-86
2022/01/28 03:06:10;;;;;;;16.13;3.30;;;7.20;99.90;;;;;;5073167;28;20810;-83
2022/01/28 03:08:37;;;;;;;24.17;4.03;;;7.20;99.90;;;;;;5072478;28;20197;-83
2022/01/28 03:13:59;;;;;;;16.67;3.33;;;7.10;99.90;;;;;;5059272;28;20220;-83
2022/01/28 03:16:29;;;;;;;16.20;2.93;;;7.10;99.90;;;;;;5072561;28;20205;-83
2022/01/28 03:18:59;;;;;;;14.37;2.93;;;7.10;99.90;;;;;;5071045;28;20211;-83
2022/01/28 03:21:39;;;;;;;20.40;3.97;;;7.10;99.90;;;;;;5071650;28;20189;-82
2022/01/28 03:24:09;;;;;;;17.97;3.57;;;7.10;99.90;;;;;;5086682;28;20208;-84
2022/01/28 03:26:37;;;;;;;18.57;4.47;;;7.00;99.90;;;;;;5085011;28;20223;-84
2022/01/28 03:29:05;;;;;;;24.57;3.97;;;7.10;99.90;;;;;;5071533;28;20856;-84
2022/01/28 03:31:32;;;;;;;18.07;2.70;;;7.10;99.90;;;;;;5071914;28;20225;-86
2022/01/28 03:33:59;;;;;;;21.17;3.03;;;7.00;99.90;;;;;;5082464;28;20212;-85
2022/01/28 03:36:26;;;;;;;13.87;2.80;;;7.10;99.90;;;;;;5090766;28;20215;-83
2022/01/28 03:38:53;;;;;;;16.30;3.50;;;7.10;99.90;;;;;;5088299;28;20240;-86
2022/01/28 03:41:19;;;;;;;12.90;2.57;;;7.00;99.90;;;;;;5090350;28;20204;-82
2022/01/28 03:43:49;;;;;;;14.53;3.23;;;7.00;99.90;;;;;;5091742;28;20200;-84
2022/01/28 03:46:16;;;;;;;13.83;2.43;;;7.00;99.90;;;;;;5082658;28;20209;-82
2022/01/28 03:48:43;;;;;;;13.37;2.93;;;7.00;99.90;;;;;;5087768;28;20512;-86
2022/01/28 03:51:10;;;;;;;14.77;2.77;;;7.00;99.90;;;;;;5091702;28;20838;-84
2022/01/28 03:53:37;;;;;;;26.07;3.57;;;7.00;99.90;;;;;;5091322;28;20189;-83
2022/01/28 03:56:04;;;;;;;14.37;2.90;;;7.00;99.90;;;;;;5072897;28;20212;-82
2022/01/28 03:58:31;;;;;;;13.53;3.10;;;7.00;99.90;;;;;;5070663;28;20205;-85
2022/01/28 04:00:59;;;;;;;14.83;2.70;;;7.00;99.90;;;;;;5071446;28;20208;-84
2022/01/28 04:03:45;;;;;;;15.93;4.70;;;7.00;99.90;;;;;;5070220;28;20296;-84
2022/01/28 04:11:40;;;;;;;12.93;2.47;;;7.10;99.90;;;;;;5088661;28;20765;-82
2022/01/28 04:14:11;;;;;;;14.27;2.43;;;7.10;99.90;;;;;;5071812;28;20201;-82
2022/01/28 04:19:37;;;;;;;14.07;2.30;;;7.10;99.90;;;;;;5018308;28;20515;-84
2022/01/28 04:22:05;;;;;;;15.00;2.80;;;7.10;99.90;;;;;;5075894;28;20196;-86
2022/01/28 04:24:32;;;;;;;17.63;3.20;;;7.10;99.90;;;;;;5080678;28;20209;-84
2022/01/28 04:26:59;;;;;;;11.23;3.27;;;7.10;99.90;;;;;;5070978;28;20201;-85
2022/01/28 04:29:26;;;;;;;14.30;2.73;;;7.10;99.90;;;;;;5070977;28;20217;-85
2022/01/28 04:31:54;;;;;;;13.27;3.37;;;7.00;99.90;;;;;;5070621;28;20233;-84
2022/01/28 04:34:22;;;;;;;14.27;3.20;;;7.00;99.90;;;;;;5071212;28;20495;-84
2022/01/28 04:36:58;;;;;;;16.43;2.63;;;7.00;99.90;;;;;;5070457;28;20613;-84
2022/01/28 04:39:32;;;;;;;11.03;3.73;;;7.00;99.90;;;;;;5070000;28;20248;-83
2022/01/28 04:42:07;;;;;;;15.87;3.10;;;7.00;99.90;;;;;;5070328;28;20288;-81
2022/01/28 04:44:42;;;;;;;16.83;2.80;;;7.00;99.90;;;;;;5070052;28;20258;-84
2022/01/28 04:47:17;;;;;;;23.07;3.40;;;6.90;99.90;;;;;;5086663;28;20207;-85
2022/01/28 04:49:55;;;;;;;16.70;3.90;;;6.90;99.90;;;;;;5081542;28;20218;-87
2022/01/28 04:52:56;;;;;;;13.80;2.93;;;7.00;99.90;;;;;;5070223;28;20239;-85
2022/01/28 04:55:39;;;;;;;21.37;2.60;;;6.90;99.90;;;;;;5070879;28;20236;-85
2022/01/28 04:58:18;;;;;;;16.90;2.97;;;6.90;99.90;;;;;;5071051;28;20324;-84
2022/01/28 05:00:55;;;;;;;15.40;3.13;;;6.90;99.90;;;;;;5071005;28;20204;-86
2022/01/28 05:03:38;;;;;;;12.40;2.63;;;6.80;99.90;;;;;;5071222;28;20342;-85
2022/01/28 05:09:24;;;;;;;12.80;2.20;;;6.80;99.90;;;;;;5049245;28;20552;-85
2022/01/28 05:12:21;;;;;;;10.23;2.40;;;6.80;99.90;;;;;;5066125;28;20205;-84
2022/01/28 05:15:23;;;;;;;15.23;2.60;;;6.80;99.90;;;;;;5069507;28;20234;-84
2022/01/28 05:23:42;;;;;;;12.00;2.27;;;6.70;99.90;;;;;;5089969;28;20218;-84
2022/01/28 05:26:35;;;;;;;11.73;2.00;;;6.70;99.90;;;;;;5088905;28;20204;-84
2022/01/28 05:29:01;;;;;;;17.93;3.77;;;6.70;99.90;;;;;;5069460;28;20742;-82
2022/01/28 05:31:29;;;;;;;8.90;2.00;;;6.80;99.90;;;;;;5069261;28;20205;-84
2022/01/28 05:33:55;;;;;;;16.20;3.87;;;6.70;99.90;;;;;;5067969;28;20225;-84
2022/01/28 05:36:24;;;;;;;16.80;2.97;;;6.70;99.90;;;;;;5069731;28;20201;-84
2022/01/28 05:38:51;;;;;;;15.10;2.33;;;6.70;99.90;;;;;;5068405;28;20241;-84
2022/01/28 05:41:19;;;;;;;10.97;2.50;;;6.80;99.90;;;;;;5068560;28;20194;-82
2022/01/28 05:43:45;;;;;;;17.00;3.20;;;6.80;99.90;;;;;;5070347;28;20208;-84
2022/01/28 05:46:13;;;;;;;20.00;4.17;;;6.80;99.90;;;;;;5078575;28;20205;-85
2022/01/28 05:48:40;;;;;;;18.23;2.63;;;6.90;99.90;;;;;;5079763;28;20220;-85
2022/01/28 05:51:07;;;;;;;15.03;3.30;;;6.90;99.90;;;;;;5069641;28;20652;-86
2022/01/28 05:53:35;;;;;;;18.93;2.83;;;6.90;99.90;;;;;;5069796;28;20229;-83
2022/01/28 05:56:02;;;;;;;15.77;3.10;;;6.90;99.90;;;;;;5069206;28;20212;-83
2022/01/28 05:58:29;;;;;;;17.63;3.07;;;6.90;99.90;;;;;;5079452;28;20212;-84
2022/01/28 06:00:56;;;;;;;15.10;2.37;;;6.90;99.90;;;;;;5069304;28;20193;-84
2022/01/28 06:03:22;;;;;;;16.13;3.07;;;6.90;99.90;;;;;;5067292;28;20193;-85
2022/01/28 06:05:49;;;;;;;17.13;3.47;;;6.80;99.90;;;;;;5069030;28;20251;-85
2022/01/28 06:08:16;;;;;;;14.80;3.53;;;6.80;99.90;;;;;;5069706;28;20616;-85
2022/01/28 06:10:44;;;;;;;9.17;2.17;;;6.80;99.90;;;;;;5069890;28;20488;-85
2022/01/28 06:13:11;;;;;;;13.67;2.47;;;6.70;99.90;;;;;;5070348;28;20228;-86
2022/01/28 06:15:40;;;;;;;12.67;2.77;;;6.70;99.90;;;;;;5069741;28;20229;-86
2022/01/28 06:18:08;;;;;;;11.10;2.17;;;6.70;99.90;;;;;;5088915;28;20216;-85
2022/01/28 06:20:34;;;;;;;10.17;2.67;;;6.70;99.90;;;;;;5090241;28;20204;-85
2022/01/28 06:23:01;;;;;;;19.50;2.70;;;6.70;99.90;;;;;;5088747;28;20220;-84
2022/01/28 06:25:28;;;;;;;12.13;3.00;;;6.70;99.90;;;;;;5089828;28;20201;-85
2022/01/28 06:27:56;;;;;;;14.03;2.53;;;6.70;99.90;;;;;;5080328;28;20205;-82
2022/01/28 06:30:23;;;;;;;14.13;2.60;;;6.60;99.90;;;;;;5067979;28;20790;-85
2022/01/28 06:32:50;;;;;;;13.60;2.60;;;6.50;99.90;;;;;;5068963;28;20217;-84
2022/01/28 06:35:17;;;;;;;15.83;2.47;;;6.50;99.90;;;;;;5069860;28;20201;-84
2022/01/28 06:37:46;;;;;;;18.10;2.17;;;6.50;99.90;;;;;;5069320;28;20234;-83
2022/01/28 06:40:15;;;;;;;9.67;2.60;;;6.50;99.90;;;;;;5069876;28;20218;-84
2022/01/28 06:42:42;;;;;;;16.67;2.27;;;6.40;99.90;;;;;;5068979;28;20204;-84
2022/01/28 06:45:11;;;;;;;16.77;3.37;;;6.30;99.90;;;;;;5065567;28;20574;-84
2022/01/28 06:47:37;;;;;;;11.43;2.70;;;6.30;99.90;;;;;;5069198;28;20615;-85
2022/01/28 06:50:05;;;;;;;18.97;3.97;;;6.30;99.90;;;;;;5069229;28;20255;-85
2022/01/28 06:52:32;;;;;;;17.50;3.43;;;6.30;99.90;;;;;;5069657;28;20728;-85
2022/01/28 06:55:00;;;;;;;11.23;2.70;;;6.40;99.90;;;;;;5072408;28;20208;-85
2022/01/28 06:57:28;;;;;;;12.50;2.70;;;6.40;99.90;;;;;;5071476;28;20247;-83
2022/01/28 06:59:55;;;;;;;12.00;2.40;;;6.30;99.90;;;;;;5072731;28;20224;-83
2022/01/28 07:02:23;;;;;;;11.67;2.83;;;6.40;99.90;;;;;;5072572;28;20197;-84
2022/01/28 07:04:50;;;;;;;12.00;2.20;;;6.40;99.90;;;;;;5092327;28;20211;-83
2022/01/28 07:07:19;;;;;;;15.07;2.77;;;6.40;99.90;;;;;;5093743;28;20196;-83
2022/01/28 07:09:48;;;;;;;13.07;2.93;;;6.40;99.90;;;;;;5092533;28;20200;-85
2022/01/28 07:12:15;;;;;;;14.40;2.67;;;6.40;99.90;;;;;;5072551;28;20198;-84
2022/01/28 07:14:42;;;;;;;11.07;2.30;;;6.30;99.90;;;;;;5072353;28;20201;-85
2022/01/28 07:17:08;;;;;;;12.67;2.17;;;6.30;99.90;;;;;;5070925;28;20209;-85
2022/01/28 07:19:37;;;;;;;13.77;2.40;;;6.30;99.90;;;;;;5072644;28;20232;-88
2022/01/28 07:22:04;;;;;;;11.50;2.40;;;6.30;99.90;;;;;;5074029;28;20197;-87
2022/01/28 07:24:31;;;;;;;8.53;2.30;;;6.30;99.90;;;;;;5082309;28;20205;-86
2022/01/28 07:26:58;;;;;;;14.67;2.40;;;6.30;99.90;;;;;;5073777;28;20200;-87
2022/01/28 07:29:28;;;;;;;10.73;2.90;;;6.20;99.90;;;;;;5073996;28;20204;-85
2022/01/28 07:31:55;;;;;;;10.50;2.43;;;6.20;99.90;;;;;;5073489;28;20216;-86
2022/01/28 07:34:22;;;;;;;12.77;2.50;;;6.20;99.90;;;;;;5074300;28;20232;-86
2022/01/28 07:36:50;;;;;;;9.03;2.67;;;6.10;99.90;;;;;;5073470;28;20194;-87
2022/01/28 07:39:18;;;;;;;15.73;3.27;;;6.10;99.90;;;;;;5073177;28;20672;-87
2022/01/28 07:41:44;;;;;;;11.03;2.80;;;6.10;99.90;;;;;;5072941;28;20205;-88
2022/01/28 07:44:11;;;;;;;17.50;3.30;;;6.10;99.90;;;;;;5073355;28;20584;-86
2022/01/28 07:46:38;;;;;;;12.77;2.63;;;6.10;99.90;;;;;;5073834;28;20201;-87
2022/01/28 07:49:06;;;;;;;11.93;2.60;;;6.20;99.90;;;;;;5072818;28;20205;-84
2022/01/28 07:51:35;;;;;;;11.07;2.33;;;6.10;99.90;;;;;;5073114;28;20246;-87
2022/01/28 07:54:04;;;;;;;16.60;2.60;;;6.10;99.90;;;;;;5072674;28;20375;-87
2022/01/28 07:56:31;;;;;;;13.67;2.20;;;6.00;99.90;;;;;;5072811;28;20244;-87
2022/01/28 07:58:58;;;;;;;15.97;3.57;;;6.00;99.90;;;;;;5073123;28;20307;-86
2022/01/28 08:01:25;;;;;;;10.50;2.30;;;6.00;99.90;;;;;;5073027;28;20221;-87
2022/01/28 08:03:51;;;;;;;8.27;2.27;;;6.00;99.90;;;;;;5072898;28;20200;-86
2022/01/28 08:08:59;;;;;;;18.37;4.30;;;5.90;99.90;;;;;;5050175;28;20216;-85
2022/01/28 08:11:28;;;;;;;8.40;2.17;;;5.90;99.90;;;;;;5071310;28;20298;-85
2022/01/28 08:13:55;;;;;;;12.47;2.47;;;5.90;99.90;;;;;;5070415;28;20228;-86
2022/01/28 08:16:22;;;;;;;11.33;1.87;;;5.80;99.90;;;;;;5067487;28;20209;-88
2022/01/28 08:18:49;;;;;;;15.63;2.70;;;5.80;99.90;;;;;;5068502;28;20209;-84
2022/01/28 08:21:16;;;;;;;17.77;3.00;;;5.80;99.90;;;;;;5071550;28;20205;-84
2022/01/28 08:23:44;;;;;;;12.03;2.77;;;5.80;99.90;;;;;;5065522;28;20201;-83
2022/01/28 08:26:11;;;;;;;14.63;2.30;;;5.80;99.90;;;;;;5071424;28;20213;-83
2022/01/28 08:28:41;;;;;;;18.30;3.50;;;5.90;99.90;;;;;;5071153;28;20201;-83
2022/01/28 08:31:08;;;;;;;16.33;3.10;;;5.90;99.90;;;;;;5069334;28;20278;-83
2022/01/28 08:33:35;;;;;;;12.60;3.40;;;6.00;99.90;;;;;;5068875;28;20691;-86
2022/01/28 08:36:02;;;;;;;16.10;2.67;;;6.00;99.90;;;;;;5070617;28;20197;-84
2022/01/28 08:38:35;;;;;;;12.27;2.90;;;6.10;99.90;;;;;;5069683;28;20240;-84
2022/01/28 08:41:02;;;;;;;17.23;3.27;;;6.10;99.90;;;;;;5070319;28;20209;-87
2022/01/28 08:43:29;;;;;;;16.33;3.10;;;6.30;99.90;;;;;;5071982;28;20235;-85
2022/01/28 08:45:57;;;;;;;17.30;3.90;;;6.30;99.90;;;;;;5077407;28;20201;-83
2022/01/28 08:48:24;;;;;;;12.07;3.10;;;6.30;99.90;;;;;;5091387;28;20204;-84
2022/01/28 08:50:51;;;;;;;12.50;3.00;;;6.40;99.90;;;;;;5090581;28;20201;-85
2022/01/28 08:53:18;;;;;;;20.03;2.10;;;6.40;99.90;;;;;;5090976;28;20240;-85
2022/01/28 08:55:44;;;;;;;15.43;3.30;;;6.40;99.90;;;;;;5091679;28;20207;-86
2022/01/28 08:58:13;;;;;;;18.10;3.03;;;6.50;99.90;;;;;;5072741;28;20593;-82
2022/01/28 09:00:39;;;;;;;14.73;2.93;;;6.60;99.90;;;;;;5070484;28;20286;-84
2022/01/28 09:03:08;;;;;;;16.97;2.90;;;6.60;99.90;;;;;;5070515;28;20208;-84
2022/01/28 09:05:35;;;;;;;18.10;3.97;;;6.60;99.90;;;;;;5090477;28;20215;-86
2022/01/28 09:08:06;;;;;;;12.33;2.50;;;6.70;99.90;;;;;;5090473;28;20200;-83
2022/01/28 09:10:33;;;;;;;15.27;2.63;;;6.70;99.90;;;;;;5090446;28;20211;-84
2022/01/28 09:13:22;;;;;;;14.53;2.97;;;6.60;99.90;;;;;;5071062;28;20523;-86
2022/01/28 09:15:49;;;;;;;16.80;4.17;;;6.70;99.90;;;;;;5082447;28;20208;-86
2022/01/28 09:18:18;;;;;;;12.73;3.10;;;6.70;99.90;;;;;;5090790;28;20207;-86
2022/01/28 09:20:45;;;;;;;16.60;4.10;;;6.80;99.90;;;;;;5072101;28;20241;-84
2022/01/28 09:23:12;;;;;;;14.37;2.53;;;6.80;99.90;;;;;;5070867;28;20197;-86
2022/01/28 09:25:39;;;;;;;12.13;2.90;;;6.90;99.90;;;;;;5070348;28;20201;-83
2022/01/28 09:28:06;;;;;;;16.57;3.13;;;6.90;99.90;;;;;;5070433;28;20212;-85
2022/01/28 09:30:34;;;;;;;12.53;2.83;;;6.90;99.90;;;;;;5077127;28;20201;-83
2022/01/28 09:33:01;;;;;;;13.87;2.97;;;6.90;99.90;;;;;;5069056;28;20201;-86
2022/01/28 09:35:30;;;;;;;15.53;3.07;;;6.90;99.90;;;;;;5071921;28;20493;-87
2022/01/28 09:37:57;;;;;;;13.53;3.53;;;6.90;99.90;;;;;;5070980;28;20239;-86
2022/01/28 09:40:24;;;;;;;15.73;3.57;;;6.90;99.90;;;;;;5069422;28;20347;-86
2022/01/28 09:42:52;;;;;;;15.50;2.87;;;6.90;99.90;;;;;;5070969;28;20200;-87
2022/01/28 09:45:22;;;;;;;21.50;2.83;;;6.80;99.90;;;;;;5071433;28;20201;-86
2022/01/28 09:47:52;;;;;;;9.70;2.50;;;6.80;99.90;;;;;;5075680;28;20254;-87
2022/01/28 09:50:21;;;;;;;15.37;2.90;;;6.80;99.90;;;;;;5067868;28;20597;-87
2022/01/28 09:52:49;;;;;;;10.20;2.30;;;6.90;99.90;;;;;;5070503;28;20898;-84
2022/01/28 09:55:17;;;;;;;13.70;2.93;;;6.90;99.90;;;;;;5069730;28;20547;-86
2022/01/28 09:57:45;;;;;;;18.30;3.00;;;6.80;99.90;;;;;;5071152;28;20197;-86
2022/01/28 10:00:14;;;;;;;16.13;3.10;;;6.80;99.90;;;;;;5071043;28;20203;-86
2022/01/28 10:02:48;;;;;;;10.97;2.77;;;6.80;99.90;;;;;;5071103;28;20262;-87
2022/01/28 10:05:19;;;;;;;13.43;2.47;;;6.80;99.90;;;;;;5070908;28;20228;-85
2022/01/28 10:08:08;;;;;;;11.17;2.73;;;6.80;99.90;;;;;;5070387;28;20193;-86
2022/01/28 10:10:54;;;;;;;11.20;2.63;;;6.80;99.90;;;;;;5070587;28;20513;-86
2022/01/28 10:13:27;;;;;;;10.17;2.00;;;6.90;99.90;;;;;;5071864;28;20284;-85
2022/01/28 10:16:01;;;;;;;10.83;2.37;;;6.90;99.90;;;;;;5091102;28;20248;-86
2022/01/28 10:18:46;;;;;;;9.03;2.57;;;6.90;99.90;;;;;;5089119;28;20211;-85
2022/01/28 10:21:18;;;;;;;8.87;2.67;;;6.90;99.90;;;;;;5070823;28;20201;-86
2022/01/28 10:24:05;;;;;;;10.97;2.00;;;7.00;99.90;;;;;;5070731;28;20538;-85
2022/01/28 10:26:38;;;;;;;7.80;2.53;;;7.00;99.90;;;;;;5070873;28;20209;-86
2022/01/28 10:29:07;;;;;;;7.67;1.57;;;7.10;99.90;;;;;;5073948;28;20213;-87
2022/01/28 10:31:38;;;;;;;9.33;2.07;;;7.10;99.90;;;;;;5074293;28;20217;-84
2022/01/28 10:34:19;;;;;;;9.13;2.57;;;7.20;99.90;;;;;;5074881;28;20220;-85
2022/01/28 10:36:47;;;;;;;10.53;2.83;;;7.30;99.90;;;;;;5074120;28;20208;-84
2022/01/28 10:39:19;;;;;;;8.80;2.10;;;7.40;99.90;;;;;;5093898;28;20252;-85
2022/01/28 10:41:54;;;;;;;14.93;2.10;;;7.40;99.90;;;;;;5093683;28;20196;-83
2022/01/28 10:44:21;;;;;;;12.10;2.33;;;7.50;99.90;;;;;;5076810;28;20613;-84
2022/01/28 10:46:54;;;;;;;11.20;2.50;;;7.60;99.90;;;;;;5073496;28;20216;-85
2022/01/28 10:49:29;;;;;;;7.13;2.37;;;7.70;99.90;;;;;;5072292;28;20768;-84
2022/01/28 10:52:03;;;;;;;12.73;2.70;;;7.70;99.90;;;;;;5092427;28;20208;-85
2022/01/28 10:54:31;;;;;;;7.30;1.80;;;7.80;99.90;;;;;;5092188;28;20229;-83
2022/01/28 10:57:01;;;;;;;9.93;2.53;;;7.80;99.90;;;;;;5072081;28;20270;-82
2022/01/28 10:59:30;;;;;;;8.17;1.77;;;7.80;99.90;;;;;;5072136;28;20209;-82
2022/01/28 11:01:57;;;;;;;11.00;3.23;;;7.80;99.90;;;;;;5071116;28;20197;-85
2022/01/28 11:04:25;;;;;;;14.97;2.47;;;7.80;99.90;;;;;;5073479;28;20209;-83
2022/01/28 11:06:54;;;;;;;11.10;2.00;;;7.80;99.90;;;;;;5072300;28;20212;-82
2022/01/28 11:09:22;;;;;;;14.40;2.80;;;7.80;99.90;;;;;;5090372;28;20204;-87
2022/01/28 11:11:51;;;;;;;10.93;2.80;;;7.80;99.90;;;;;;5092612;28;20205;-83
2022/01/28 11:14:19;;;;;;;10.23;2.13;;;7.80;99.90;;;;;;5077758;28;20225;-85
2022/01/28 11:16:48;;;;;;;13.00;2.10;;;7.80;99.90;;;;;;5072263;28;20209;-84
2022/01/28 11:19:17;;;;;;;11.27;2.53;;;7.80;99.90;;;;;;5086294;28;20751;-88
2022/01/28 11:21:56;;;;;;;8.10;2.10;;;7.80;99.90;;;;;;5092598;28;20196;-85
2022/01/28 11:24:36;;;;;;;9.07;2.10;;;7.80;99.90;;;;;;5091723;28;20200;-83
2022/01/28 11:27:13;;;;;;;10.50;2.83;;;7.90;99.90;;;;;;5089374;28;20204;-85
2022/01/28 11:29:40;;;;;;;10.97;2.27;;;7.90;99.90;;;;;;5081946;28;20209;-83
2022/01/28 11:32:14;;;;;;;8.77;2.33;;;8.00;99.90;;;;;;5070348;28;20217;-82
2022/01/28 11:34:57;;;;;;;7.20;1.90;;;8.10;99.90;;;;;;5070398;28;20617;-85
2022/01/28 11:37:29;;;;;;;9.63;1.90;;;8.10;99.90;;;;;;5070856;28;20201;-83
2022/01/28 11:40:07;;;;;;;5.90;1.97;;;8.20;99.90;;;;;;5069207;28;20250;-84
2022/01/28 11:42:35;;;;;;;7.70;1.90;;;8.20;99.90;;;;;;5070656;28;20223;-84
2022/01/28 11:45:04;;;;;;;12.07;2.50;;;8.30;99.90;;;;;;5088396;28;20204;-82
2022/01/28 11:47:34;;;;;;;8.60;1.70;;;8.40;99.90;;;;;;5082920;28;20205;-85
2022/01/28 11:50:10;;;;;;;10.33;1.90;;;8.50;99.90;;;;;;5072936;28;20594;-86
2022/01/28 11:52:40;;;;;;;8.67;2.87;;;8.60;99.90;;;;;;5079703;28;20811;-83
2022/01/28 11:55:31;;;;;;;7.80;2.27;;;8.70;99.90;;;;;;5093293;28;20546;-86
2022/01/28 11:58:01;;;;;;;8.13;1.47;;;8.90;99.90;;;;;;5093171;28;20508;-86
2022/01/28 12:00:32;;;;;;;7.57;1.90;;;9.00;99.90;;;;;;5088059;28;20209;-84
2022/01/28 12:02:59;;;;;;;9.57;2.40;;;9.10;99.90;;;;;;5072720;28;20201;-85
2022/01/28 12:05:52;;;;;;;5.77;1.73;;;9.10;99.90;;;;;;5072533;28;20201;-88
2022/01/28 12:08:20;;;;;;;12.33;1.80;;;9.20;99.90;;;;;;5071020;28;20520;-86
2022/01/28 12:10:50;;;;;;;9.03;2.30;;;9.30;99.90;;;;;;5072817;28;20201;-87
2022/01/28 12:13:21;;;;;;;7.13;1.67;;;9.30;99.90;;;;;;5085957;28;20211;-88
2022/01/28 12:16:12;;;;;;;16.97;2.93;;;9.40;99.90;;;;;;5090008;28;20231;-87
2022/01/28 12:18:54;;;;;;;6.53;2.20;;;9.50;99.90;;;;;;5093216;28;20242;-89
2022/01/28 12:21:23;;;;;;;5.60;2.17;;;9.50;99.90;;;;;;5091459;28;20234;-89
2022/01/28 12:23:50;;;;;;;9.70;2.70;;;9.60;99.90;;;;;;5072803;28;20229;-87
2022/01/28 12:26:19;;;;;;;4.63;1.50;;;9.60;99.90;;;;;;5072741;28;20205;-85
2022/01/28 12:28:52;;;;;;;8.80;1.77;;;9.70;99.90;;;;;;5070587;28;20694;-83
2022/01/28 12:31:29;;;;;;;9.00;1.93;;;9.80;99.90;;;;;;5067704;28;20197;-81
2022/01/28 12:33:58;;;;;;;6.80;1.45;;;9.80;99.90;;;;;;5067155;28;20197;-81
2022/01/28 12:36:28;;;;;;;8.40;1.87;;;9.90;99.90;;;;;;5066499;28;20215;-82
2022/01/28 12:41:55;;;;;;;7.00;1.93;;;9.90;99.90;;;;;;5039235;28;20205;-82
2022/01/28 12:44:24;;;;;;;8.17;2.00;;;9.90;99.90;;;;;;5046639;28;20668;-80
2022/01/28 12:46:56;;;;;;;9.07;2.30;;;9.90;99.90;;;;;;5046682;28;20713;-81
2022/01/28 12:49:28;;;;;;;21.43;9.53;;;9.90;99.90;;;;;;5047024;28;20194;-82
2022/01/28 12:51:57;;;;;;;10.43;2.97;;;9.90;99.90;;;;;;5066364;28;20208;-81
2022/01/28 12:54:36;;;;;;;8.07;2.30;;;9.80;99.90;;;;;;5061507;28;20318;-82
2022/01/28 12:57:03;;;;;;;12.63;2.97;;;9.80;99.90;;;;;;5045903;28;20204;-81
2022/01/28 12:59:31;;;;;;;9.13;2.30;;;9.80;99.90;;;;;;5047799;28;20210;-82
2022/01/28 13:01:58;;;;;;;8.20;2.23;;;9.80;99.90;;;;;;5047120;28;20216;-82
2022/01/28 13:04:37;;;;;;;14.93;2.53;;;9.80;99.90;;;;;;5047106;28;20248;-82
2022/01/28 13:09:50;;;;;;;10.10;2.63;;;9.90;99.90;;;;;;5047043;28;20262;-81
2022/01/28 13:12:25;;;;;;;16.13;3.50;;;9.90;99.90;;;;;;5047594;28;20304;-81
2022/01/28 13:14:53;;;;;;;8.57;2.07;;;9.90;99.90;;;;;;5046748;28;20231;-82
2022/01/28 13:17:22;;;;;;;10.33;2.17;;;10.00;99.90;;;;;;5046465;28;20214;-82
2022/01/28 13:19:57;;;;;;;8.73;1.97;;;10.00;99.90;;;;;;5046544;28;20217;-81
2022/01/28 13:22:27;;;;;;;5.90;2.60;;;10.00;99.90;;;;;;5063143;28;20605;-82
2022/01/28 13:24:54;;;;;;;13.43;2.87;;;9.90;99.90;;;;;;5046049;28;20217;-82
2022/01/28 13:27:22;;;;;;;11.63;2.87;;;9.90;99.90;;;;;;5046467;28;20290;-82
2022/01/28 13:29:52;;;;;;;10.47;3.70;;;9.90;99.90;;;;;;5046480;28;20202;-81
2022/01/28 13:32:25;;;;;;;10.50;3.10;;;9.90;99.90;;;;;;5045982;28;20210;-81
2022/01/28 13:34:54;;;;;;;8.23;2.80;;;9.90;99.90;;;;;;5045743;28;20602;-82
2022/01/28 13:37:38;;;;;;;11.97;3.60;;;9.90;99.90;;;;;;5044508;28;20213;-80
2022/01/28 13:40:07;;;;;;;12.30;3.70;;;9.90;99.90;;;;;;5045386;28;20565;-80
2022/01/28 13:42:34;;;;;;;13.70;3.57;;;9.90;99.90;;;;;;5065584;28;20209;-81
2022/01/28 13:45:04;;;;;;;15.27;4.70;;;9.80;99.90;;;;;;5066899;28;20301;-81
2022/01/28 13:47:53;;;;;;;20.67;4.63;;;9.80;99.90;;;;;;5066020;28;20197;-81
2022/01/28 13:50:28;;;;;;;18.50;5.07;;;9.80;99.90;;;;;;5047111;28;20873;-81
2022/01/28 13:53:33;;;;;;;17.73;3.80;;;9.80;99.90;;;;;;5045774;28;20247;-82
2022/01/28 13:56:07;;;;;;;11.43;4.30;;;9.70;99.90;;;;;;5045788;28;20650;-81
2022/01/28 13:58:44;;;;;;;11.17;4.13;;;9.70;99.90;;;;;;5047011;28;20206;-81
2022/01/28 14:01:11;;;;;;;13.23;4.23;;;9.70;99.90;;;;;;5046388;28;20210;-81